Merrill, Mississippi
Current Conditions -  °F | °C
As of 9:56 AM on Thursday 18 Dec 2014 (Local Time) from KMOB Reporting Station
Broken Clouds Broken Clouds  
Wind Chill: 53°   Ceiling: 25000
Heat Index: 53°   Visibility: 10mi
Dew Point: 40°   Wind: 3mph
Humidity: 61%   Direction: NA
Pressure: 30.23"   Gusts: NA
Location:  30.8443°N, 88.5703°W
Report Text: KMOB 181556Z VRB03KT 10SM SCT100 BKN250 12/04 A3023 RMK AO2 SLP236 T01170044
Loading
Personal Weather Stations






























Interactive Weather Map New forecast layout! Learn more

10-Day Weather Forecast

Advertisements
Track Severe Weather on mobile